Time;durP1;ratioP1;P1;durP2;ratioP2;P2;SDS_P1;SDS_P2;PMS_P1;PMS_P2;Temp;Humidity;BMP_temperature;BMP_pressure;BME280_temperature;BME280_humidity;BME280_pressure;Samples;Min_cycle;Max_cycle;Signal;HPM_P1;HPM_P2
2022/08/25 00:00:39;;;;;;;13.73;10.57;;;;;;;;;;10232641;28;20146;-76
2022/08/25 00:05:40;;;;;;;13.90;10.65;;;;;;;;;;10219146;28;20393;-78
2022/08/25 00:10:41;;;;;;;13.32;10.02;;;;;;;;;;10215434;28;20483;-77
2022/08/25 00:15:41;;;;;;;15.18;11.27;;;;;;;;;;10233530;28;20090;-78
2022/08/25 00:20:42;;;;;;;14.10;10.75;;;;;;;;;;10245251;28;20105;-77
2022/08/25 00:25:42;;;;;;;14.80;11.00;;;;;;;;;;10236680;28;20047;-78
2022/08/25 00:30:43;;;;;;;14.63;10.93;;;;;;;;;;10239299;28;20043;-78
2022/08/25 00:35:43;;;;;;;14.38;11.13;;;;;;;;;;10228068;28;20308;-79
2022/08/25 00:40:44;;;;;;;14.32;11.20;;;;;;;;;;10225160;28;20862;-75
2022/08/25 00:45:44;;;;;;;15.00;11.70;;;;;;;;;;10234522;28;20146;-73
2022/08/25 00:50:45;;;;;;;12.52;10.93;;;;;;;;;;10224715;28;20137;-73
2022/08/25 00:55:46;;;;;;;14.37;12.17;;;;;;;;;;10235451;28;20047;-77
2022/08/25 01:00:48;;;;;;;17.20;12.52;;;;;;;;;;10233772;28;20706;-76
2022/08/25 01:05:49;;;;;;;13.68;11.18;;;;;;;;;;10236657;28;20137;-75
2022/08/25 01:10:50;;;;;;;14.32;11.15;;;;;;;;;;10237014;28;20593;-74
2022/08/25 01:15:53;;;;;;;14.88;11.98;;;;;;;;;;10235184;28;20113;-76
2022/08/25 01:20:54;;;;;;;15.00;12.35;;;;;;;;;;10229581;28;20042;-74
2022/08/25 01:26:04;;;;;;;17.73;12.75;;;;;;;;;;10233305;28;20051;-75
2022/08/25 01:31:04;;;;;;;15.70;12.45;;;;;;;;;;10228770;28;20074;-75
2022/08/25 01:36:05;;;;;;;14.20;11.60;;;;;;;;;;10230129;28;20126;-74
2022/08/25 01:41:05;;;;;;;15.10;12.10;;;;;;;;;;10227272;28;20076;-75
2022/08/25 01:46:06;;;;;;;16.40;12.90;;;;;;;;;;10230763;28;20035;-75
2022/08/25 01:51:07;;;;;;;15.35;12.27;;;;;;;;;;10216438;29;20062;-75
2022/08/25 01:56:10;;;;;;;15.93;12.50;;;;;;;;;;10235512;28;20042;-75
2022/08/25 02:01:14;;;;;;;13.80;11.75;;;;;;;;;;10217463;29;20299;-76
2022/08/25 02:06:16;;;;;;;18.23;13.25;;;;;;;;;;10230475;28;20043;-74
2022/08/25 02:11:16;;;;;;;16.63;12.68;;;;;;;;;;10234943;28;20628;-74
2022/08/25 02:16:19;;;;;;;18.83;13.65;;;;;;;;;;10221998;28;20031;-74
2022/08/25 02:21:20;;;;;;;17.40;13.10;;;;;;;;;;10233291;28;20119;-75
2022/08/25 02:26:20;;;;;;;16.83;12.60;;;;;;;;;;10225705;28;20468;-74
2022/08/25 02:31:22;;;;;;;16.20;12.37;;;;;;;;;;10231244;28;20058;-74
2022/08/25 02:36:23;;;;;;;18.67;12.67;;;;;;;;;;10236020;28;20464;-73
2022/08/25 02:41:24;;;;;;;19.58;13.65;;;;;;;;;;10235649;28;20207;-77
2022/08/25 02:46:24;;;;;;;16.40;13.40;;;;;;;;;;10256938;28;20111;-78
2022/08/25 02:51:28;;;;;;;18.92;13.82;;;;;;;;;;10242398;28;20439;-77
2022/08/25 02:56:29;;;;;;;15.98;12.20;;;;;;;;;;10222761;28;20526;-75
2022/08/25 03:01:31;;;;;;;17.70;13.85;;;;;;;;;;10226143;28;20044;-75
2022/08/25 03:06:31;;;;;;;20.15;14.75;;;;;;;;;;10236947;28;20047;-74
2022/08/25 03:11:32;;;;;;;15.83;12.77;;;;;;;;;;10223306;28;20692;-74
2022/08/25 03:16:33;;;;;;;19.60;14.57;;;;;;;;;;10238178;28;20392;-75
2022/08/25 03:21:33;;;;;;;20.73;15.02;;;;;;;;;;10239891;28;20127;-77
2022/08/25 03:31:53;;;;;;;17.50;13.65;;;;;;;;;;10215172;29;20091;-73
2022/08/25 03:36:54;;;;;;;15.95;12.50;;;;;;;;;;10235477;28;20476;-75
2022/08/25 03:41:54;;;;;;;19.63;15.02;;;;;;;;;;10226875;28;20043;-76
2022/08/25 03:46:55;;;;;;;20.67;15.60;;;;;;;;;;10231811;28;20054;-74
2022/08/25 03:51:55;;;;;;;18.43;14.47;;;;;;;;;;10244428;28;20039;-74
2022/08/25 03:56:56;;;;;;;16.75;13.52;;;;;;;;;;10232637;28;20294;-74
2022/08/25 04:01:56;;;;;;;17.43;13.80;;;;;;;;;;10224473;29;20102;-74
2022/08/25 04:06:57;;;;;;;15.27;12.73;;;;;;;;;;10242608;28;20302;-76
2022/08/25 04:11:59;;;;;;;18.00;13.95;;;;;;;;;;10241443;28;20378;-77
2022/08/25 04:16:59;;;;;;;16.53;12.73;;;;;;;;;;10242953;28;20023;-78
2022/08/25 04:21:59;;;;;;;21.15;14.95;;;;;;;;;;10240742;28;20318;-76
2022/08/25 04:27:00;;;;;;;19.33;15.07;;;;;;;;;;10251050;28;20085;-78
2022/08/25 04:32:00;;;;;;;21.27;16.52;;;;;;;;;;10246904;29;20036;-79
2022/08/25 04:37:02;;;;;;;21.93;15.80;;;;;;;;;;10281844;28;20051;-79
2022/08/25 04:42:02;;;;;;;19.88;14.75;;;;;;;;;;10210720;28;20413;-77
2022/08/25 04:47:03;;;;;;;19.67;15.40;;;;;;;;;;10244792;28;20043;-75
2022/08/25 04:52:03;;;;;;;18.90;14.63;;;;;;;;;;10235228;28;20039;-75
2022/08/25 04:57:04;;;;;;;16.92;13.55;;;;;;;;;;10239612;28;20047;-75
2022/08/25 05:02:05;;;;;;;14.75;12.70;;;;;;;;;;10219341;28;20039;-72
2022/08/25 05:07:06;;;;;;;22.17;15.02;;;;;;;;;;10232554;28;20145;-75
2022/08/25 05:12:07;;;;;;;20.25;15.25;;;;;;;;;;10225446;28;20049;-76
2022/08/25 05:17:07;;;;;;;23.60;17.02;;;;;;;;;;10218591;28;20141;-76
2022/08/25 05:22:08;;;;;;;23.45;17.77;;;;;;;;;;10220390;28;20109;-76
2022/08/25 05:27:09;;;;;;;20.77;15.40;;;;;;;;;;10228686;28;20093;-75
2022/08/25 05:32:09;;;;;;;22.25;16.38;;;;;;;;;;10238171;28;20073;-74
2022/08/25 05:37:10;;;;;;;20.50;15.27;;;;;;;;;;10231096;28;20031;-76
2022/08/25 05:42:11;;;;;;;22.27;14.95;;;;;;;;;;10222175;28;20035;-76
2022/08/25 05:47:11;;;;;;;21.27;15.93;;;;;;;;;;10222034;28;20050;-76
2022/08/25 05:52:12;;;;;;;19.57;14.73;;;;;;;;;;10237525;28;20733;-77
2022/08/25 05:57:13;;;;;;;23.08;15.88;;;;;;;;;;10244607;28;20650;-73
2022/08/25 06:07:32;;;;;;;22.02;14.40;;;;;;;;;;10215063;29;20555;-73
2022/08/25 06:12:34;;;;;;;19.75;15.32;;;;;;;;;;10216121;28;20046;-74
2022/08/25 06:17:39;;;;;;;19.92;14.27;;;;;;;;;;10236311;28;20031;-76
2022/08/25 06:22:40;;;;;;;21.42;17.05;;;;;;;;;;10221763;28;20043;-75
2022/08/25 06:27:41;;;;;;;20.75;15.40;;;;;;;;;;10223163;28;20039;-74
2022/08/25 06:32:42;;;;;;;22.23;16.52;;;;;;;;;;10222836;28;20087;-74
2022/08/25 06:37:43;;;;;;;17.42;13.55;;;;;;;;;;10220821;28;20066;-75
2022/08/25 06:42:47;;;;;;;25.17;16.95;;;;;;;;;;10221349;28;20149;-74
2022/08/25 06:47:47;;;;;;;17.65;13.60;;;;;;;;;;10236475;28;20051;-78
2022/08/25 06:52:48;;;;;;;21.33;15.73;;;;;;;;;;10247971;29;20700;-74
2022/08/25 06:57:51;;;;;;;24.67;16.80;;;;;;;;;;10268844;28;20067;-75
2022/08/25 07:02:52;;;;;;;18.17;14.30;;;;;;;;;;10228148;28;20305;-77
2022/08/25 07:07:52;;;;;;;19.80;15.63;;;;;;;;;;10242037;28;20515;-76
2022/08/25 07:12:53;;;;;;;24.73;15.95;;;;;;;;;;10225347;28;20035;-75
2022/08/25 07:17:53;;;;;;;22.48;17.42;;;;;;;;;;10239763;28;20035;-75
2022/08/25 07:22:53;;;;;;;19.40;15.57;;;;;;;;;;10221610;29;20059;-74
2022/08/25 07:27:54;;;;;;;20.67;15.00;;;;;;;;;;10218194;28;20054;-74
2022/08/25 07:32:54;;;;;;;20.88;14.85;;;;;;;;;;10222752;29;20341;-76
2022/08/25 07:37:58;;;;;;;18.55;13.88;;;;;;;;;;10229130;29;20084;-75
2022/08/25 07:43:00;;;;;;;16.67;13.18;;;;;;;;;;10232410;28;20043;-74
2022/08/25 07:48:09;;;;;;;18.27;13.27;;;;;;;;;;10238742;28;20039;-75
2022/08/25 07:53:11;;;;;;;15.75;12.27;;;;;;;;;;10238852;28;20175;-76
2022/08/25 07:58:11;;;;;;;18.25;14.18;;;;;;;;;;10238181;28;20031;-76
2022/08/25 08:03:12;;;;;;;16.17;12.95;;;;;;;;;;10227570;28;20024;-75
2022/08/25 08:08:12;;;;;;;15.25;11.43;;;;;;;;;;10221677;28;20035;-75
2022/08/25 08:13:13;;;;;;;15.40;12.80;;;;;;;;;;10243536;28;20104;-77
2022/08/25 08:18:14;;;;;;;16.23;12.63;;;;;;;;;;10230734;29;20039;-76
2022/08/25 08:23:16;;;;;;;13.57;11.68;;;;;;;;;;10238969;28;20055;-76
2022/08/25 08:28:16;;;;;;;12.63;11.25;;;;;;;;;;10242016;28;20054;-77
2022/08/25 08:33:16;;;;;;;12.20;10.85;;;;;;;;;;10239586;28;20035;-76
2022/08/25 08:38:17;;;;;;;13.00;10.40;;;;;;;;;;10219307;29;20039;-77
2022/08/25 08:43:18;;;;;;;11.50;10.30;;;;;;;;;;10241305;28;20079;-77
2022/08/25 08:48:51;;;;;;;12.70;9.55;;;;;;;;;;10237095;28;20282;-77
2022/08/25 08:53:54;;;;;;;15.52;11.50;;;;;;;;;;10198792;28;20055;-78
2022/08/25 08:58:56;;;;;;;11.18;9.52;;;;;;;;;;10257385;28;20123;-77
2022/08/25 09:03:57;;;;;;;;;;;;;;;;;;10243421;28;20498;-77
2022/08/25 09:09:01;;;;;;;11.60;10.02;;;;;;;;;;10221547;28;19919;-76
2022/08/25 09:14:14;;;;;;;13.15;10.95;;;;;;;;;;10237623;28;20118;-76
2022/08/25 09:19:27;;;;;;;10.75;9.63;;;;;;;;;;10234556;28;20039;-76
2022/08/25 09:24:41;;;;;;;11.02;9.88;;;;;;;;;;10233367;28;20059;-74
2022/08/25 09:29:56;;;;;;;15.35;12.77;;;;;;;;;;10233697;28;20107;-76
2022/08/25 09:34:57;;;;;;;11.63;10.43;;;;;;;;;;10226895;28;20055;-75
2022/08/25 09:39:57;;;;;;;10.80;9.20;;;;;;;;;;10215135;29;20537;-74
2022/08/25 09:44:58;;;;;;;22.80;18.67;;;;;;;;;;10227121;28;20113;-76
2022/08/25 09:50:00;;;;;;;10.93;8.90;;;;;;;;;;10231616;28;20333;-74
2022/08/25 09:55:00;;;;;;;;;;;;;;;;;;10234329;28;20043;-71
2022/08/25 10:00:16;;;;;;;10.10;9.03;;;;;;;;;;10210874;28;19990;-76
2022/08/25 10:05:22;;;;;;;10.10;8.82;;;;;;;;;;10233927;28;20070;-75
2022/08/25 10:10:30;;;;;;;11.00;9.85;;;;;;;;;;10231282;28;20039;-77
2022/08/25 10:15:35;;;;;;;10.65;9.30;;;;;;;;;;10229010;28;20059;-74
2022/08/25 10:20:35;;;;;;;9.32;8.43;;;;;;;;;;10228441;28;20043;-74
2022/08/25 10:25:39;;;;;;;10.57;9.07;;;;;;;;;;10241855;28;20046;-75
2022/08/25 10:30:53;;;;;;;10.73;8.15;;;;;;;;;;10225693;28;20372;-74
2022/08/25 10:36:29;;;;;;;9.85;8.70;;;;;;;;;;10246608;28;20481;-74
2022/08/25 10:41:36;;;;;;;9.40;8.10;;;;;;;;;;10165085;28;20047;-75
2022/08/25 10:46:44;;;;;;;9.93;8.93;;;;;;;;;;10240673;28;20055;-74
2022/08/25 10:51:44;;;;;;;8.90;8.00;;;;;;;;;;10235752;28;20066;-74
2022/08/25 10:56:48;;;;;;;9.73;8.60;;;;;;;;;;10236816;28;20057;-73
2022/08/25 11:02:10;;;;;;;10.70;9.43;;;;;;;;;;10234889;28;20102;-75
2022/08/25 11:07:16;;;;;;;9.18;8.27;;;;;;;;;;10238464;28;20177;-76
2022/08/25 11:12:25;;;;;;;10.60;9.07;;;;;;;;;;10233932;28;20035;-74
2022/08/25 11:17:33;;;;;;;10.93;8.98;;;;;;;;;;10235315;28;20098;-75
2022/08/25 11:22:38;;;;;;;10.82;8.85;;;;;;;;;;10221201;29;20130;-73
2022/08/25 11:27:44;;;;;;;8.93;8.02;;;;;;;;;;10241612;28;20043;-75
2022/08/25 11:32:52;;;;;;;9.55;8.60;;;;;;;;;;10238760;28;20797;-74
2022/08/25 11:38:01;;;;;;;9.48;7.68;;;;;;;;;;10233791;28;20423;-75
2022/08/25 11:43:05;;;;;;;13.80;11.27;;;;;;;;;;10222434;28;20135;-75
2022/08/25 11:48:11;;;;;;;9.40;8.43;;;;;;;;;;10219140;28;20054;-75
2022/08/25 11:53:18;;;;;;;9.80;8.00;;;;;;;;;;10213242;28;20042;-80
2022/08/25 11:58:37;;;;;;;9.90;8.10;;;;;;;;;;10235785;28;20131;-79
2022/08/25 12:03:38;;;;;;;8.93;7.35;;;;;;;;;;10242983;28;20039;-81
2022/08/25 12:08:57;;;;;;;10.77;8.43;;;;;;;;;;10231270;28;20462;-78
2022/08/25 12:14:21;;;;;;;8.25;7.45;;;;;;;;;;10242761;28;20178;-78
2022/08/25 12:19:30;;;;;;;7.55;6.80;;;;;;;;;;10207846;28;20055;-78
2022/08/25 12:24:44;;;;;;;8.20;6.80;;;;;;;;;;10296041;23;20051;-76
2022/08/25 12:30:04;;;;;;;8.85;7.43;;;;;;;;;;10217166;28;20114;-75
2022/08/25 12:35:21;;;;;;;8.32;7.32;;;;;;;;;;10211249;28;20451;-76
2022/08/25 12:40:25;;;;;;;7.75;6.97;;;;;;;;;;10242737;28;20398;-78
2022/08/25 12:45:46;;;;;;;7.10;6.40;;;;;;;;;;10246070;28;20106;-78
2022/08/25 12:50:55;;;;;;;8.73;6.63;;;;;;;;;;10221898;29;20051;-79
2022/08/25 12:55:59;;;;;;;7.35;6.43;;;;;;;;;;10227522;28;20040;-78
2022/08/25 13:01:12;;;;;;;8.00;6.82;;;;;;;;;;10237618;28;20043;-77
2022/08/25 13:06:21;;;;;;;7.47;6.35;;;;;;;;;;10273297;28;20039;-77
2022/08/25 13:17:24;;;;;;;6.80;6.18;;;;;;;;;;12047916;23;20621;-79
2022/08/25 13:22:25;;;;;;;9.23;7.60;;;;;;;;;;10396609;23;20093;-74
2022/08/25 13:27:26;;;;;;;8.17;7.33;;;;;;;;;;10215608;28;20050;-75
2022/08/25 13:32:29;;;;;;;8.15;7.35;;;;;;;;;;10232932;28;20097;-72
2022/08/25 13:37:32;;;;;;;11.45;7.65;;;;;;;;;;10236915;28;20471;-72
2022/08/25 13:42:32;;;;;;;8.15;7.25;;;;;;;;;;10234990;28;20087;-72
2022/08/25 13:47:34;;;;;;;10.32;6.80;;;;;;;;;;10236420;28;20188;-73
2022/08/25 13:52:35;;;;;;;7.75;7.05;;;;;;;;;;10228016;28;20585;-73
2022/08/25 13:57:35;;;;;;;9.47;6.70;;;;;;;;;;10231276;28;20046;-74
2022/08/25 14:02:47;;;;;;;10.07;7.00;;;;;;;;;;10232416;29;20059;-70
2022/08/25 14:07:54;;;;;;;8.65;7.05;;;;;;;;;;10236846;28;20039;-73
2022/08/25 14:13:09;;;;;;;7.63;6.47;;;;;;;;;;10231659;29;20047;-73
2022/08/25 14:18:29;;;;;;;7.63;6.90;;;;;;;;;;10236639;29;20514;-71
2022/08/25 14:23:30;;;;;;;7.43;6.72;;;;;;;;;;10234749;28;20074;-72
2022/08/25 14:28:30;;;;;;;9.50;6.93;;;;;;;;;;10234950;28;20041;-71
2022/08/25 14:33:54;;;;;;;7.53;6.72;;;;;;;;;;10241229;28;20424;-72
2022/08/25 14:38:54;;;;;;;7.75;6.28;;;;;;;;;;10217009;28;20093;-72
2022/08/25 14:43:54;;;;;;;7.40;6.70;;;;;;;;;;10235028;28;20190;-73
2022/08/25 14:48:59;;;;;;;7.43;6.30;;;;;;;;;;10224379;28;20453;-74
2022/08/25 14:54:04;;;;;;;6.50;5.85;;;;;;;;;;10242219;28;20521;-74
2022/08/25 14:59:05;;;;;;;7.68;5.68;;;;;;;;;;10229393;28;20073;-73
2022/08/25 15:04:15;;;;;;;6.87;6.27;;;;;;;;;;10239207;28;20092;-72
2022/08/25 15:09:16;;;;;;;8.20;6.43;;;;;;;;;;10245047;28;20145;-78
2022/08/25 15:14:19;;;;;;;6.47;5.80;;;;;;;;;;10241907;28;20031;-73
2022/08/25 15:19:21;;;;;;;9.43;6.57;;;;;;;;;;10240789;28;20198;-75
2022/08/25 15:24:23;;;;;;;7.22;5.45;;;;;;;;;;10240135;28;20062;-75
2022/08/25 15:29:26;;;;;;;11.68;6.47;;;;;;;;;;10237484;28;20039;-74
2022/08/25 15:34:27;;;;;;;8.18;5.75;;;;;;;;;;10231704;28;20396;-70
2022/08/25 15:39:27;;;;;;;7.50;6.03;;;;;;;;;;10239777;28;20047;-72
2022/08/25 15:44:28;;;;;;;10.40;6.90;;;;;;;;;;10240027;28;20077;-71
2022/08/25 15:49:29;;;;;;;8.47;6.60;;;;;;;;;;10241917;28;20446;-73
2022/08/25 15:54:29;;;;;;;7.93;6.57;;;;;;;;;;10240566;28;20109;-75
2022/08/25 15:59:29;;;;;;;8.83;6.80;;;;;;;;;;10237731;28;20058;-73
2022/08/25 16:04:30;;;;;;;7.70;6.20;;;;;;;;;;10230800;28;20165;-74
2022/08/25 16:09:32;;;;;;;7.10;6.37;;;;;;;;;;10236013;28;20035;-74
2022/08/25 16:14:32;;;;;;;7.63;6.82;;;;;;;;;;10243138;28;20299;-73
2022/08/25 16:19:33;;;;;;;11.57;9.60;;;;;;;;;;10235232;28;20035;-74
2022/08/25 16:24:33;;;;;;;7.70;6.90;;;;;;;;;;10224431;28;20199;-74
2022/08/25 16:29:35;;;;;;;7.27;6.10;;;;;;;;;;10243421;29;20039;-72
2022/08/25 16:34:36;;;;;;;7.38;6.07;;;;;;;;;;10240421;28;20079;-74
2022/08/25 16:39:38;;;;;;;7.87;7.00;;;;;;;;;;10242485;28;20099;-72
2022/08/25 16:44:39;;;;;;;6.75;5.80;;;;;;;;;;10254137;28;20466;-73
2022/08/25 16:49:40;;;;;;;;;;;;;;;;;;10246855;28;20182;-71
2022/08/25 17:00:00;;;;;;;7.18;5.78;;;;;;;;;;10238808;28;20039;-73
2022/08/25 17:05:00;;;;;;;6.10;5.50;;;;;;;;;;10230947;28;20055;-74
2022/08/25 17:10:01;;;;;;;7.27;6.37;;;;;;;;;;10241679;29;20050;-72
2022/08/25 17:15:01;;;;;;;16.50;11.53;;;;;;;;;;10239713;28;20115;-72
2022/08/25 17:20:02;;;;;;;9.67;7.90;;;;;;;;;;10241762;28;20071;-72
2022/08/25 17:25:03;;;;;;;6.40;5.47;;;;;;;;;;10234825;28;20099;-73
2022/08/25 17:30:03;;;;;;;7.67;6.37;;;;;;;;;;10223319;28;20083;-72
2022/08/25 17:35:04;;;;;;;8.47;6.27;;;;;;;;;;10233116;28;20039;-74
2022/08/25 17:40:05;;;;;;;7.90;6.00;;;;;;;;;;10235794;28;20058;-71
2022/08/25 17:45:06;;;;;;;5.37;4.57;;;;;;;;;;10235069;28;20062;-72
2022/08/25 17:50:06;;;;;;;7.00;5.33;;;;;;;;;;10210702;28;20298;-73
2022/08/25 17:55:07;;;;;;;7.27;5.30;;;;;;;;;;10238390;28;20046;-72
2022/08/25 18:00:11;;;;;;;8.27;5.93;;;;;;;;;;10238759;28;20039;-73
2022/08/25 18:05:12;;;;;;;8.35;6.28;;;;;;;;;;10225800;28;20265;-73
2022/08/25 18:10:12;;;;;;;7.00;5.60;;;;;;;;;;10236037;28;20075;-74
2022/08/25 18:15:13;;;;;;;7.20;5.80;;;;;;;;;;10233614;28;20043;-73
2022/08/25 18:20:13;;;;;;;7.43;5.73;;;;;;;;;;10242316;28;20431;-72
2022/08/25 18:25:14;;;;;;;8.20;6.43;;;;;;;;;;10232373;28;20090;-73
2022/08/25 18:30:14;;;;;;;9.70;6.77;;;;;;;;;;10207620;28;20071;-74
2022/08/25 18:35:15;;;;;;;8.57;6.80;;;;;;;;;;10224792;29;20106;-73
2022/08/25 18:40:21;;;;;;;8.40;7.47;;;;;;;;;;10240592;28;20091;-73
2022/08/25 18:45:25;;;;;;;7.97;6.72;;;;;;;;;;10247085;28;20057;-73
2022/08/25 18:50:27;;;;;;;9.55;8.05;;;;;;;;;;10243988;28;20070;-73
2022/08/25 18:55:27;;;;;;;8.05;6.97;;;;;;;;;;10244450;28;20051;-73
2022/08/25 19:00:28;;;;;;;10.73;9.50;;;;;;;;;;10242290;28;20034;-72
2022/08/25 19:05:31;;;;;;;12.87;9.23;;;;;;;;;;10238372;28;20050;-74
2022/08/25 19:10:32;;;;;;;11.60;9.73;;;;;;;;;;10237018;28;20039;-71
2022/08/25 19:15:33;;;;;;;11.03;9.07;;;;;;;;;;10237356;28;20470;-71
2022/08/25 19:20:33;;;;;;;11.55;9.23;;;;;;;;;;10236348;29;20043;-73
2022/08/25 19:25:34;;;;;;;12.20;10.27;;;;;;;;;;10245905;28;20043;-74
2022/08/25 19:30:35;;;;;;;10.57;9.37;;;;;;;;;;10244212;28;20307;-72
2022/08/25 19:35:38;;;;;;;13.52;9.95;;;;;;;;;;10227013;28;20134;-72
2022/08/25 19:40:38;;;;;;;13.13;10.40;;;;;;;;;;10242212;28;20027;-73
2022/08/25 19:45:40;;;;;;;16.17;11.07;;;;;;;;;;10247274;28;20463;-72
2022/08/25 19:50:41;;;;;;;18.33;12.97;;;;;;;;;;10244616;28;20035;-73
2022/08/25 19:55:41;;;;;;;12.30;10.85;;;;;;;;;;10224564;28;20411;-73
2022/08/25 20:00:42;;;;;;;12.13;9.98;;;;;;;;;;10231534;28;20063;-72
2022/08/25 20:05:42;;;;;;;18.88;11.05;;;;;;;;;;10234833;28;20071;-73
2022/08/25 20:10:44;;;;;;;11.57;9.57;;;;;;;;;;10245140;28;20159;-71
2022/08/25 20:15:44;;;;;;;15.65;11.30;;;;;;;;;;10241084;28;20043;-72
2022/08/25 20:20:45;;;;;;;14.25;10.05;;;;;;;;;;10241105;28;20039;-72
2022/08/25 20:25:45;;;;;;;15.40;11.00;;;;;;;;;;10239532;28;20039;-73
2022/08/25 20:30:46;;;;;;;12.57;10.40;;;;;;;;;;10242370;28;20547;-72
2022/08/25 20:35:46;;;;;;;12.82;10.63;;;;;;;;;;10236551;28;20374;-73
2022/08/25 20:40:47;;;;;;;12.10;10.18;;;;;;;;;;10237841;28;20081;-73
2022/08/25 20:45:47;;;;;;;13.43;10.23;;;;;;;;;;10238083;28;20055;-71
2022/08/25 20:50:48;;;;;;;13.38;9.77;;;;;;;;;;10241640;28;20301;-72
2022/08/25 20:55:49;;;;;;;16.33;9.97;;;;;;;;;;10219801;28;20432;-73
2022/08/25 21:00:49;;;;;;;15.60;10.98;;;;;;;;;;10236215;28;20530;-72
2022/08/25 21:05:49;;;;;;;13.13;10.33;;;;;;;;;;10241573;28;20130;-71
2022/08/25 21:10:50;;;;;;;13.55;10.65;;;;;;;;;;10235197;28;20314;-73
2022/08/25 21:15:50;;;;;;;11.53;9.17;;;;;;;;;;10238603;28;20043;-72
2022/08/25 21:20:51;;;;;;;11.57;9.70;;;;;;;;;;10228540;28;20314;-73
2022/08/25 21:25:51;;;;;;;12.50;10.23;;;;;;;;;;10235746;28;20041;-71
2022/08/25 21:30:53;;;;;;;12.15;10.27;;;;;;;;;;10228748;28;20302;-72
2022/08/25 21:35:53;;;;;;;13.43;10.80;;;;;;;;;;10237800;28;20047;-71
2022/08/25 21:40:55;;;;;;;13.20;10.37;;;;;;;;;;10237536;28;20046;-71
2022/08/25 21:45:56;;;;;;;;;;;;;;;;;;10235996;28;20323;-72
2022/08/25 21:51:16;;;;;;;13.98;10.10;;;;;;;;;;10218299;28;19915;-72
2022/08/25 21:56:18;;;;;;;13.88;10.68;;;;;;;;;;10230471;28;20491;-70
2022/08/25 22:01:19;;;;;;;13.43;10.98;;;;;;;;;;10233105;28;20110;-70
2022/08/25 22:06:21;;;;;;;13.95;10.95;;;;;;;;;;10227074;28;20059;-71
2022/08/25 22:11:21;;;;;;;14.38;11.55;;;;;;;;;;10236376;28;20155;-72
2022/08/25 22:16:22;;;;;;;13.43;10.63;;;;;;;;;;10224738;28;20047;-71
2022/08/25 22:21:22;;;;;;;14.35;11.90;;;;;;;;;;10224931;28;20306;-71
2022/08/25 22:26:24;;;;;;;15.73;12.18;;;;;;;;;;10243699;28;20085;-72
2022/08/25 22:31:24;;;;;;;13.27;11.80;;;;;;;;;;10238458;28;20117;-72
2022/08/25 22:36:27;;;;;;;15.68;11.70;;;;;;;;;;10242967;28;20056;-71
2022/08/25 22:41:28;;;;;;;17.83;12.43;;;;;;;;;;10239620;28;20130;-71
2022/08/25 22:46:29;;;;;;;17.15;12.45;;;;;;;;;;10243965;28;20365;-73
2022/08/25 22:51:30;;;;;;;16.73;11.07;;;;;;;;;;10237334;28;20031;-71
2022/08/25 22:56:33;;;;;;;14.15;11.60;;;;;;;;;;10240079;28;20072;-70
2022/08/25 23:01:33;;;;;;;14.38;10.75;;;;;;;;;;10241485;28;20501;-70
2022/08/25 23:06:34;;;;;;;15.00;11.70;;;;;;;;;;10241971;28;20072;-71
2022/08/25 23:11:35;;;;;;;18.08;12.18;;;;;;;;;;10228874;28;20083;-71
2022/08/25 23:16:38;;;;;;;17.52;13.25;;;;;;;;;;10237740;28;20034;-73
2022/08/25 23:26:58;;;;;;;15.90;11.95;;;;;;;;;;10235129;28;20503;-71
2022/08/25 23:31:58;;;;;;;16.70;12.75;;;;;;;;;;10238239;28;20145;-71
2022/08/25 23:36:58;;;;;;;15.37;12.23;;;;;;;;;;10235721;28;20039;-72
2022/08/25 23:41:59;;;;;;;14.93;12.30;;;;;;;;;;10236399;28;20310;-72
2022/08/25 23:46:59;;;;;;;15.97;12.57;;;;;;;;;;10229906;28;20126;-71
2022/08/25 23:51:59;;;;;;;17.10;13.13;;;;;;;;;;10238612;28;20066;-72
2022/08/25 23:57:00;;;;;;;16.45;12.68;;;;;;;;;;10237562;28;20051;-72
